This is the latest recevied weather packets stored in our database for station/object F4ELU-13. If no packets are shown the sender has not sent any weather packets the latest 10 day(s).
| Time | Temp. | Humidity | Pressure | Rain* | Wind** | Luminosity | Snow |
|---|---|---|---|---|---|---|---|
| 1777912563 | 17.22° C | 78% | 1010.7 hPa | 0 mm | - | - | - |
| 1777912023 | 18.33° C | 76% | 1010.8 hPa | 0 mm | - | - | - |
| 1777911483 | 17.78° C | 77% | 1010.7 hPa | 0 mm | - | - | - |
| 1777910943 | 17.78° C | 76% | 1010.7 hPa | 0 mm | - | - | - |
| 1777910403 | 18.33° C | 75% | 1010.7 hPa | 0 mm | - | - | - |
| 1777910043 | 18.89° C | 74% | 1010.7 hPa | 0 mm | - | - | - |
| 1777909503 | 18.89° C | 75% | 1010.7 hPa | 0 mm | - | - | - |
| 1777908963 | 19.44° C | 74% | 1010.8 hPa | 0 mm | - | - | - |
| 1777908423 | 20° C | 73% | 1010.5 hPa | 0 mm | - | - | - |
| 1777907883 | 18.33° C | 76% | 1010.8 hPa | 0 mm | - | - | - |
| 1777907343 | 18.89° C | 74% | 1010.9 hPa | 0 mm | - | - | - |
| 1777906803 | 19.44° C | 74% | 1011.1 hPa | 0 mm | - | - | - |
| 1777906443 | 18.33° C | 77% | 1011.2 hPa | 0 mm | - | - | - |
| 1777905903 | 18.89° C | 75% | 1011.3 hPa | 0 mm | - | - | - |
| 1777905363 | 18.89° C | 76% | 1011.3 hPa | 0 mm | - | - | - |
| 1777904823 | 17.78° C | 79% | 1011.5 hPa | 0 mm | - | - | - |
| 1777904283 | 17.78° C | 78% | 1011.7 hPa | 0 mm | - | - | - |
| 1777903743 | 17.22° C | 81% | 1011.8 hPa | 0 mm | - | - | - |
| 1777903203 | 17.78° C | 81% | 1011.7 hPa | 0 mm | - | - | - |
| 1777902843 | 17.78° C | 78% | 1011.9 hPa | 0 mm | - | - | - |
| 1777902303 | 17.22° C | 79% | 1012 hPa | 0 mm | - | - | - |
| 1777901763 | 17.22° C | 79% | 1012 hPa | 0 mm | - | - | - |
| 1777901223 | 16.67° C | 81% | 1012 hPa | 0 mm | - | - | - |
| 1777900683 | 16.11° C | 82% | 1012.1 hPa | 0 mm | - | - | - |
| 1777900143 | 17.22° C | 82% | 1012.1 hPa | 0 mm | - | - | - |
* Rain latest hour (hover to see other rain measurements)
** Current wind speed in m/s (hover to see current wind gust speed)